sensor_id;sensor_type;location;lat;lon;timestamp;pressure;altitude;pressure_sealevel;temperature;humidity
28606;BME280;46498;49.968;7.754;2023-08-30T00:00:26;-18713.00;;;13.67;100.00
28606;BME280;46498;49.968;7.754;2023-08-30T00:05:27;-18716.00;;;13.77;100.00
28606;BME280;46498;49.968;7.754;2023-08-30T00:10:28;-18715.00;;;13.74;100.00
28606;BME280;46498;49.968;7.754;2023-08-30T00:15:29;-18714.00;;;13.70;100.00
28606;BME280;46498;49.968;7.754;2023-08-30T00:20:30;-18714.00;;;13.70;100.00
28606;BME280;46498;49.968;7.754;2023-08-30T00:25:31;-18714.00;;;13.70;100.00
28606;BME280;46498;49.968;7.754;2023-08-30T00:30:31;-18713.00;;;13.67;100.00
28606;BME280;46498;49.968;7.754;2023-08-30T00:35:32;-18712.00;;;13.64;100.00
28606;BME280;46498;49.968;7.754;2023-08-30T00:40:42;-18712.00;;;13.63;100.00
28606;BME280;46498;49.968;7.754;2023-08-30T00:45:44;-18709.00;;;13.55;100.00
28606;BME280;46498;49.968;7.754;2023-08-30T00:50:45;-18709.00;;;13.53;100.00
28606;BME280;46498;49.968;7.754;2023-08-30T00:55:47;-18710.00;;;13.57;100.00
28606;BME280;46498;49.968;7.754;2023-08-30T01:00:48;-18707.00;;;13.48;100.00
28606;BME280;46498;49.968;7.754;2023-08-30T01:05:49;-18706.00;;;13.45;100.00
28606;BME280;46498;49.968;7.754;2023-08-30T01:11:19;-18708.00;;;13.50;100.00
28606;BME280;46498;49.968;7.754;2023-08-30T01:16:25;-18708.00;;;13.52;100.00
28606;BME280;46498;49.968;7.754;2023-08-30T01:21:47;-18714.00;;;13.68;100.00
28606;BME280;46498;49.968;7.754;2023-08-30T01:27:10;-18712.00;;;13.62;100.00
28606;BME280;46498;49.968;7.754;2023-08-30T01:32:12;-18711.00;;;13.61;100.00
28606;BME280;46498;49.968;7.754;2023-08-30T01:37:14;-18710.00;;;13.58;100.00
28606;BME280;46498;49.968;7.754;2023-08-30T01:42:15;-18708.00;;;13.52;100.00
28606;BME280;46498;49.968;7.754;2023-08-30T01:47:23;-18708.00;;;13.51;100.00
28606;BME280;46498;49.968;7.754;2023-08-30T01:52:26;-18707.00;;;13.48;100.00
28606;BME280;46498;49.968;7.754;2023-08-30T01:57:27;-18707.00;;;13.48;100.00
28606;BME280;46498;49.968;7.754;2023-08-30T02:02:30;-18708.00;;;13.49;100.00
28606;BME280;46498;49.968;7.754;2023-08-30T02:07:43;-18707.00;;;13.47;100.00
28606;BME280;46498;49.968;7.754;2023-08-30T02:12:48;-18709.00;;;13.55;100.00
28606;BME280;46498;49.968;7.754;2023-08-30T02:17:50;-18708.00;;;13.52;100.00
28606;BME280;46498;49.968;7.754;2023-08-30T02:22:52;-18710.00;;;13.57;100.00
28606;BME280;46498;49.968;7.754;2023-08-30T02:27:52;-18710.00;;;13.58;100.00
28606;BME280;46498;49.968;7.754;2023-08-30T02:32:53;-18712.00;;;13.62;100.00
28606;BME280;46498;49.968;7.754;2023-08-30T02:37:54;-18708.00;;;13.50;100.00
28606;BME280;46498;49.968;7.754;2023-08-30T02:42:56;-18707.00;;;13.47;100.00
28606;BME280;46498;49.968;7.754;2023-08-30T02:47:57;-18705.00;;;13.41;100.00
28606;BME280;46498;49.968;7.754;2023-08-30T02:53:00;-18708.00;;;13.51;100.00
28606;BME280;46498;49.968;7.754;2023-08-30T02:58:01;-18709.00;;;13.54;100.00
28606;BME280;46498;49.968;7.754;2023-08-30T03:03:03;-18709.00;;;13.55;100.00
28606;BME280;46498;49.968;7.754;2023-08-30T03:08:05;-18705.00;;;13.42;100.00
28606;BME280;46498;49.968;7.754;2023-08-30T03:13:06;-18704.00;;;13.38;100.00
28606;BME280;46498;49.968;7.754;2023-08-30T03:18:07;-18705.00;;;13.40;100.00
28606;BME280;46498;49.968;7.754;2023-08-30T03:23:09;-18701.00;;;13.30;100.00
28606;BME280;46498;49.968;7.754;2023-08-30T03:28:10;-18697.00;;;13.15;100.00
28606;BME280;46498;49.968;7.754;2023-08-30T03:33:11;-18693.00;;;13.03;100.00
28606;BME280;46498;49.968;7.754;2023-08-30T03:38:13;-18690.00;;;12.93;100.00
28606;BME280;46498;49.968;7.754;2023-08-30T03:43:13;-18691.00;;;12.97;100.00
28606;BME280;46498;49.968;7.754;2023-08-30T03:48:14;-18686.00;;;12.80;100.00
28606;BME280;46498;49.968;7.754;2023-08-30T03:53:15;-18685.00;;;12.78;100.00
28606;BME280;46498;49.968;7.754;2023-08-30T03:58:18;-18681.00;;;12.67;100.00
28606;BME280;46498;49.968;7.754;2023-08-30T04:03:19;-18678.00;;;12.57;100.00
28606;BME280;46498;49.968;7.754;2023-08-30T04:08:20;-18675.00;;;12.48;100.00
28606;BME280;46498;49.968;7.754;2023-08-30T04:13:22;-18671.00;;;12.33;100.00
28606;BME280;46498;49.968;7.754;2023-08-30T04:18:22;-18670.00;;;12.31;100.00
28606;BME280;46498;49.968;7.754;2023-08-30T04:23:25;-18667.00;;;12.22;100.00
28606;BME280;46498;49.968;7.754;2023-08-30T04:28:26;-18665.00;;;12.15;100.00
28606;BME280;46498;49.968;7.754;2023-08-30T04:33:28;-18659.00;;;11.98;100.00
28606;BME280;46498;49.968;7.754;2023-08-30T04:38:29;-18651.00;;;11.72;100.00
28606;BME280;46498;49.968;7.754;2023-08-30T04:43:31;-18650.00;;;11.67;100.00
28606;BME280;46498;49.968;7.754;2023-08-30T04:48:32;-18652.00;;;11.74;100.00
28606;BME280;46498;49.968;7.754;2023-08-30T04:53:33;-18654.00;;;11.82;100.00
28606;BME280;46498;49.968;7.754;2023-08-30T04:58:34;-18655.00;;;11.84;100.00
28606;BME280;46498;49.968;7.754;2023-08-30T05:03:36;-18657.00;;;11.89;100.00
28606;BME280;46498;49.968;7.754;2023-08-30T05:08:37;-18661.00;;;12.03;100.00
28606;BME280;46498;49.968;7.754;2023-08-30T05:13:38;-18663.00;;;12.08;100.00
28606;BME280;46498;49.968;7.754;2023-08-30T05:18:40;-18661.00;;;12.02;100.00
28606;BME280;46498;49.968;7.754;2023-08-30T05:23:41;-18662.00;;;12.05;100.00
28606;BME280;46498;49.968;7.754;2023-08-30T05:28:42;-18664.00;;;12.12;100.00
28606;BME280;46498;49.968;7.754;2023-08-30T05:33:44;-18664.00;;;12.13;100.00
28606;BME280;46498;49.968;7.754;2023-08-30T05:40:07;-18661.00;;;12.02;100.00
28606;BME280;46498;49.968;7.754;2023-08-30T05:45:08;-18662.00;;;12.06;100.00
28606;BME280;46498;49.968;7.754;2023-08-30T05:50:09;-18667.00;;;12.22;100.00
28606;BME280;46498;49.968;7.754;2023-08-30T05:55:10;-18673.00;;;12.40;100.00
28606;BME280;46498;49.968;7.754;2023-08-30T06:00:13;-18674.00;;;12.43;100.00
28606;BME280;46498;49.968;7.754;2023-08-30T06:05:14;-18681.00;;;12.65;100.00
28606;BME280;46498;49.968;7.754;2023-08-30T06:10:15;-18682.00;;;12.70;100.00
28606;BME280;46498;49.968;7.754;2023-08-30T06:15:16;-18687.00;;;12.84;100.00
28606;BME280;46498;49.968;7.754;2023-08-30T06:20:17;-18696.00;;;13.13;100.00
28606;BME280;46498;49.968;7.754;2023-08-30T06:25:18;-18702.00;;;13.33;100.00
28606;BME280;46498;49.968;7.754;2023-08-30T06:30:19;-18711.00;;;13.59;100.00
28606;BME280;46498;49.968;7.754;2023-08-30T06:35:19;-18716.00;;;13.76;100.00
28606;BME280;46498;49.968;7.754;2023-08-30T06:40:20;-18722.00;;;13.94;100.00
28606;BME280;46498;49.968;7.754;2023-08-30T06:45:21;-18714.00;;;13.71;100.00
28606;BME280;46498;49.968;7.754;2023-08-30T06:50:22;-18713.00;;;13.65;100.00
28606;BME280;46498;49.968;7.754;2023-08-30T06:55:23;-18711.00;;;13.59;100.00
28606;BME280;46498;49.968;7.754;2023-08-30T07:00:24;-18718.00;;;13.83;100.00
28606;BME280;46498;49.968;7.754;2023-08-30T07:05:24;-18725.00;;;14.04;100.00
28606;BME280;46498;49.968;7.754;2023-08-30T07:10:25;-18730.00;;;14.18;100.00
28606;BME280;46498;49.968;7.754;2023-08-30T07:15:28;-18724.00;;;14.02;100.00
28606;BME280;46498;49.968;7.754;2023-08-30T07:20:29;-18723.00;;;13.98;100.00
28606;BME280;46498;49.968;7.754;2023-08-30T07:25:30;-18725.00;;;14.04;100.00
28606;BME280;46498;49.968;7.754;2023-08-30T07:30:33;-18731.00;;;14.23;100.00
28606;BME280;46498;49.968;7.754;2023-08-30T07:35:35;-18740.00;;;14.52;100.00
28606;BME280;46498;49.968;7.754;2023-08-30T07:40:36;-18740.00;;;14.52;100.00
28606;BME280;46498;49.968;7.754;2023-08-30T07:45:37;-18738.00;;;14.45;100.00
28606;BME280;46498;49.968;7.754;2023-08-30T07:50:38;-18746.00;;;14.68;100.00
28606;BME280;46498;49.968;7.754;2023-08-30T07:55:39;-18747.00;;;14.74;100.00
28606;BME280;46498;49.968;7.754;2023-08-30T08:00:40;-18746.00;;;14.68;100.00
28606;BME280;46498;49.968;7.754;2023-08-30T08:05:41;-18750.00;;;14.83;100.00
28606;BME280;46498;49.968;7.754;2023-08-30T08:10:42;-18757.00;;;15.05;100.00
28606;BME280;46498;49.968;7.754;2023-08-30T08:15:44;-18765.00;;;15.29;100.00
28606;BME280;46498;49.968;7.754;2023-08-30T08:20:45;-18765.00;;;15.29;100.00
28606;BME280;46498;49.968;7.754;2023-08-30T08:25:45;-18769.00;;;15.43;100.00
28606;BME280;46498;49.968;7.754;2023-08-30T08:30:46;-18769.00;;;15.42;100.00
28606;BME280;46498;49.968;7.754;2023-08-30T08:35:51;-18773.00;;;15.56;100.00
28606;BME280;46498;49.968;7.754;2023-08-30T08:41:01;-18775.00;;;15.63;100.00
28606;BME280;46498;49.968;7.754;2023-08-30T08:46:04;-18777.00;;;15.66;100.00
28606;BME280;46498;49.968;7.754;2023-08-30T08:51:07;-18789.00;;;16.04;100.00
28606;BME280;46498;49.968;7.754;2023-08-30T08:56:09;-18793.00;;;16.17;100.00
28606;BME280;46498;49.968;7.754;2023-08-30T09:01:10;-18793.00;;;16.18;100.00
28606;BME280;46498;49.968;7.754;2023-08-30T09:06:30;-18796.00;;;16.29;95.64
28606;BME280;46498;49.968;7.754;2023-08-30T09:11:32;-18792.00;;;16.14;95.70
28606;BME280;46498;49.968;7.754;2023-08-30T09:17:00;-18799.00;;;16.37;96.19
28606;BME280;46498;49.968;7.754;2023-08-30T09:22:02;-18811.00;;;16.73;94.24
28606;BME280;46498;49.968;7.754;2023-08-30T09:27:03;-18810.00;;;16.72;94.03
28606;BME280;46498;49.968;7.754;2023-08-30T09:32:07;-18812.00;;;16.76;95.37
28606;BME280;46498;49.968;7.754;2023-08-30T09:37:19;-18830.00;;;17.33;92.56
28606;BME280;46498;49.968;7.754;2023-08-30T09:42:21;-18826.00;;;17.22;88.61
28606;BME280;46498;49.968;7.754;2023-08-30T09:47:25;-18822.00;;;17.10;87.24
28606;BME280;46498;49.968;7.754;2023-08-30T09:52:30;-18832.00;;;17.41;92.10
28606;BME280;46498;49.968;7.754;2023-08-30T09:57:31;-18835.00;;;17.50;82.47
28606;BME280;46498;49.968;7.754;2023-08-30T10:02:32;-18851.00;;;18.00;87.15
28606;BME280;46498;49.968;7.754;2023-08-30T10:07:36;-18850.00;;;17.96;80.79
28606;BME280;46498;49.968;7.754;2023-08-30T10:12:39;-18851.00;;;18.01;78.79
28606;BME280;46498;49.968;7.754;2023-08-30T10:17:45;-18841.00;;;17.68;85.70
28606;BME280;46498;49.968;7.754;2023-08-30T10:22:47;-18849.00;;;17.95;81.38
28606;BME280;46498;49.968;7.754;2023-08-30T10:27:50;-18847.00;;;17.87;74.63
28606;BME280;46498;49.968;7.754;2023-08-30T10:32:51;-18862.00;;;18.36;71.74
28606;BME280;46498;49.968;7.754;2023-08-30T10:37:55;-18857.00;;;18.18;70.64
28606;BME280;46498;49.968;7.754;2023-08-30T10:43:04;-18865.00;;;18.44;68.19
28606;BME280;46498;49.968;7.754;2023-08-30T10:48:05;-18855.00;;;18.13;70.45
28606;BME280;46498;49.968;7.754;2023-08-30T10:53:13;-18848.00;;;17.91;66.92
28606;BME280;46498;49.968;7.754;2023-08-30T10:58:15;-18843.00;;;17.75;68.62
28606;BME280;46498;49.968;7.754;2023-08-30T11:03:16;-18847.00;;;17.86;68.15
28606;BME280;46498;49.968;7.754;2023-08-30T11:08:17;-18871.00;;;18.62;64.94
28606;BME280;46498;49.968;7.754;2023-08-30T11:13:19;-18880.00;;;18.91;63.10
28606;BME280;46498;49.968;7.754;2023-08-30T11:18:20;-18870.00;;;18.59;66.62
28606;BME280;46498;49.968;7.754;2023-08-30T11:23:21;-18865.00;;;18.44;62.25
28606;BME280;46498;49.968;7.754;2023-08-30T11:28:23;-18888.00;;;19.17;57.30
28606;BME280;46498;49.968;7.754;2023-08-30T11:33:24;-18899.00;;;19.50;58.26
28606;BME280;46498;49.968;7.754;2023-08-30T11:38:26;-18891.00;;;19.27;56.69
28606;BME280;46498;49.968;7.754;2023-08-30T11:43:28;-18889.00;;;19.18;58.50
28606;BME280;46498;49.968;7.754;2023-08-30T11:48:29;-18882.00;;;18.98;55.38
28606;BME280;46498;49.968;7.754;2023-08-30T11:53:30;-18868.00;;;18.52;56.35
28606;BME280;46498;49.968;7.754;2023-08-30T11:58:35;-18861.00;;;18.32;58.10
28606;BME280;46498;49.968;7.754;2023-08-30T12:03:37;-18866.00;;;18.48;57.85
28606;BME280;46498;49.968;7.754;2023-08-30T12:08:38;-18857.00;;;18.19;60.03
28606;BME280;46498;49.968;7.754;2023-08-30T12:13:39;-18841.00;;;17.67;61.30
28606;BME280;46498;49.968;7.754;2023-08-30T12:18:40;-18830.00;;;17.33;65.14
28606;BME280;46498;49.968;7.754;2023-08-30T12:23:41;-18824.00;;;17.16;69.02
28606;BME280;46498;49.968;7.754;2023-08-30T12:28:42;-18817.00;;;16.94;64.97
28606;BME280;46498;49.968;7.754;2023-08-30T12:33:44;-18811.00;;;16.75;69.33
28606;BME280;46498;49.968;7.754;2023-08-30T12:38:45;-18809.00;;;16.69;71.47
28606;BME280;46498;49.968;7.754;2023-08-30T12:43:47;-18811.00;;;16.73;70.65
28606;BME280;46498;49.968;7.754;2023-08-30T12:48:48;-18819.00;;;17.00;69.69
28606;BME280;46498;49.968;7.754;2023-08-30T12:53:49;-18834.00;;;17.48;67.29
28606;BME280;46498;49.968;7.754;2023-08-30T12:58:50;-18839.00;;;17.63;66.94
28606;BME280;46498;49.968;7.754;2023-08-30T13:03:52;-18846.00;;;17.84;67.85
28606;BME280;46498;49.968;7.754;2023-08-30T13:08:52;-18861.00;;;18.32;66.14
28606;BME280;46498;49.968;7.754;2023-08-30T13:13:54;-18870.00;;;18.60;61.83
28606;BME280;46498;49.968;7.754;2023-08-30T13:18:54;-18865.00;;;18.44;62.97
28606;BME280;46498;49.968;7.754;2023-08-30T13:23:55;-18867.00;;;18.49;64.31
28606;BME280;46498;49.968;7.754;2023-08-30T13:28:56;-18867.00;;;18.51;65.56
28606;BME280;46498;49.968;7.754;2023-08-30T13:33:59;-18871.00;;;18.65;64.84
28606;BME280;46498;49.968;7.754;2023-08-30T13:39:00;-18871.00;;;18.65;63.99
28606;BME280;46498;49.968;7.754;2023-08-30T13:44:01;-18870.00;;;18.61;63.39
28606;BME280;46498;49.968;7.754;2023-08-30T13:49:04;-18881.00;;;18.96;58.54
28606;BME280;46498;49.968;7.754;2023-08-30T13:54:05;-18898.00;;;19.47;56.35
28606;BME280;46498;49.968;7.754;2023-08-30T13:59:06;-18911.00;;;19.89;53.99
28606;BME280;46498;49.968;7.754;2023-08-30T14:04:07;-18916.00;;;20.05;54.02
28606;BME280;46498;49.968;7.754;2023-08-30T14:09:08;-18900.00;;;19.56;54.60
28606;BME280;46498;49.968;7.754;2023-08-30T14:14:10;-18901.00;;;19.58;55.33
28606;BME280;46498;49.968;7.754;2023-08-30T14:19:11;-18890.00;;;19.23;57.13
28606;BME280;46498;49.968;7.754;2023-08-30T14:24:12;-18909.00;;;19.84;59.26
28606;BME280;46498;49.968;7.754;2023-08-30T14:29:13;-18916.00;;;20.05;56.60
28606;BME280;46498;49.968;7.754;2023-08-30T14:34:14;-18892.00;;;19.31;57.97
28606;BME280;46498;49.968;7.754;2023-08-30T14:39:15;-18904.00;;;19.67;58.74
28606;BME280;46498;49.968;7.754;2023-08-30T14:44:16;-18908.00;;;19.80;57.70
28606;BME280;46498;49.968;7.754;2023-08-30T14:49:17;-18891.00;;;19.25;61.81
28606;BME280;46498;49.968;7.754;2023-08-30T14:54:18;-18885.00;;;19.07;64.36
28606;BME280;46498;49.968;7.754;2023-08-30T14:59:19;-18885.00;;;19.07;67.02
28606;BME280;46498;49.968;7.754;2023-08-30T15:04:20;-18874.00;;;18.74;64.64
28606;BME280;46498;49.968;7.754;2023-08-30T15:09:21;-18863.00;;;18.37;67.54
28606;BME280;46498;49.968;7.754;2023-08-30T15:14:22;-18858.00;;;18.22;68.50
28606;BME280;46498;49.968;7.754;2023-08-30T15:19:23;-18860.00;;;18.27;65.14
28606;BME280;46498;49.968;7.754;2023-08-30T15:24:24;-18884.00;;;19.05;64.04
28606;BME280;46498;49.968;7.754;2023-08-30T15:29:26;-18867.00;;;18.52;63.58
28606;BME280;46498;49.968;7.754;2023-08-30T15:34:26;-18856.00;;;18.15;66.95
28606;BME280;46498;49.968;7.754;2023-08-30T15:39:27;-18850.00;;;17.97;70.73
28606;BME280;46498;49.968;7.754;2023-08-30T15:44:28;-18834.00;;;17.47;72.34
28606;BME280;46498;49.968;7.754;2023-08-30T15:49:30;-18818.00;;;16.97;77.72
28606;BME280;46498;49.968;7.754;2023-08-30T15:54:30;-18793.00;;;16.17;89.92
28606;BME280;46498;49.968;7.754;2023-08-30T15:59:31;-18769.00;;;15.41;100.00
28606;BME280;46498;49.968;7.754;2023-08-30T16:04:32;-18754.00;;;14.95;100.00
28606;BME280;46498;49.968;7.754;2023-08-30T16:09:35;-18753.00;;;14.93;100.00
28606;BME280;46498;49.968;7.754;2023-08-30T16:14:36;-18749.00;;;14.81;100.00
28606;BME280;46498;49.968;7.754;2023-08-30T16:19:37;-18746.00;;;14.71;100.00
28606;BME280;46498;49.968;7.754;2023-08-30T16:24:38;-18741.00;;;14.55;100.00
28606;BME280;46498;49.968;7.754;2023-08-30T16:29:39;-18735.00;;;14.36;100.00
28606;BME280;46498;49.968;7.754;2023-08-30T16:34:40;-18734.00;;;14.32;100.00
28606;BME280;46498;49.968;7.754;2023-08-30T16:39:40;-18727.00;;;14.10;100.00
28606;BME280;46498;49.968;7.754;2023-08-30T16:44:42;-18722.00;;;13.95;100.00
28606;BME280;46498;49.968;7.754;2023-08-30T16:49:45;-18716.00;;;13.77;100.00
28606;BME280;46498;49.968;7.754;2023-08-30T16:54:46;-18719.00;;;13.85;100.00
28606;BME280;46498;49.968;7.754;2023-08-30T16:59:47;-18719.00;;;13.86;100.00
28606;BME280;46498;49.968;7.754;2023-08-30T17:04:47;-18716.00;;;13.74;100.00
28606;BME280;46498;49.968;7.754;2023-08-30T17:09:48;-18715.00;;;13.71;100.00
28606;BME280;46498;49.968;7.754;2023-08-30T17:14:50;-18713.00;;;13.67;100.00
28606;BME280;46498;49.968;7.754;2023-08-30T17:19:50;-18715.00;;;13.73;100.00
28606;BME280;46498;49.968;7.754;2023-08-30T17:24:52;-18712.00;;;13.64;100.00
28606;BME280;46498;49.968;7.754;2023-08-30T17:29:52;-18711.00;;;13.60;100.00
28606;BME280;46498;49.968;7.754;2023-08-30T17:34:53;-18713.00;;;13.66;100.00
28606;BME280;46498;49.968;7.754;2023-08-30T17:39:54;-18701.00;;;13.29;100.00
28606;BME280;46498;49.968;7.754;2023-08-30T17:44:55;-18695.00;;;13.10;100.00
28606;BME280;46498;49.968;7.754;2023-08-30T17:50:01;-18693.00;;;13.03;100.00
28606;BME280;46498;49.968;7.754;2023-08-30T17:55:02;-18692.00;;;12.99;100.00
28606;BME280;46498;49.968;7.754;2023-08-30T18:00:04;-18692.00;;;13.00;100.00
28606;BME280;46498;49.968;7.754;2023-08-30T18:05:12;-18692.00;;;13.02;100.00
28606;BME280;46498;49.968;7.754;2023-08-30T18:10:13;-18691.00;;;12.97;100.00
28606;BME280;46498;49.968;7.754;2023-08-30T18:15:14;-18688.00;;;12.89;100.00
28606;BME280;46498;49.968;7.754;2023-08-30T18:20:15;-18691.00;;;12.96;100.00
28606;BME280;46498;49.968;7.754;2023-08-30T18:25:16;-18688.00;;;12.87;100.00
28606;BME280;46498;49.968;7.754;2023-08-30T18:30:19;-18683.00;;;12.71;100.00
28606;BME280;46498;49.968;7.754;2023-08-30T18:35:19;-18682.00;;;12.69;100.00
28606;BME280;46498;49.968;7.754;2023-08-30T18:40:20;-18683.00;;;12.72;100.00
28606;BME280;46498;49.968;7.754;2023-08-30T18:45:23;-18679.00;;;12.59;100.00
28606;BME280;46498;49.968;7.754;2023-08-30T18:50:24;-18676.00;;;12.50;100.00
28606;BME280;46498;49.968;7.754;2023-08-30T18:55:26;-18676.00;;;12.51;100.00
28606;BME280;46498;49.968;7.754;2023-08-30T19:00:33;-18678.00;;;12.56;100.00
28606;BME280;46498;49.968;7.754;2023-08-30T19:05:34;-18677.00;;;12.52;100.00
28606;BME280;46498;49.968;7.754;2023-08-30T19:10:36;-18677.00;;;12.53;100.00
28606;BME280;46498;49.968;7.754;2023-08-30T19:15:40;-18675.00;;;12.46;100.00
28606;BME280;46498;49.968;7.754;2023-08-30T19:20:41;-18677.00;;;12.54;100.00
28606;BME280;46498;49.968;7.754;2023-08-30T19:25:42;-18675.00;;;12.48;100.00
28606;BME280;46498;49.968;7.754;2023-08-30T19:30:43;-18679.00;;;12.58;100.00
28606;BME280;46498;49.968;7.754;2023-08-30T19:35:45;-18678.00;;;12.55;100.00
28606;BME280;46498;49.968;7.754;2023-08-30T19:40:50;-18677.00;;;12.52;100.00
28606;BME280;46498;49.968;7.754;2023-08-30T19:46:01;-18677.00;;;12.54;100.00
28606;BME280;46498;49.968;7.754;2023-08-30T19:51:03;-18676.00;;;12.49;100.00
28606;BME280;46498;49.968;7.754;2023-08-30T19:56:04;-18675.00;;;12.47;100.00
28606;BME280;46498;49.968;7.754;2023-08-30T20:01:07;-18676.00;;;12.49;100.00
28606;BME280;46498;49.968;7.754;2023-08-30T20:06:08;-18674.00;;;12.43;100.00
28606;BME280;46498;49.968;7.754;2023-08-30T20:11:08;-18672.00;;;12.38;100.00
28606;BME280;46498;49.968;7.754;2023-08-30T20:16:09;-18673.00;;;12.42;100.00
28606;BME280;46498;49.968;7.754;2023-08-30T20:21:11;-18673.00;;;12.41;100.00
28606;BME280;46498;49.968;7.754;2023-08-30T20:26:12;-18672.00;;;12.36;100.00
28606;BME280;46498;49.968;7.754;2023-08-30T20:31:13;-18672.00;;;12.37;100.00
28606;BME280;46498;49.968;7.754;2023-08-30T20:36:15;-18672.00;;;12.37;100.00
28606;BME280;46498;49.968;7.754;2023-08-30T20:41:20;-18671.00;;;12.35;100.00
28606;BME280;46498;49.968;7.754;2023-08-30T20:46:21;-18670.00;;;12.32;100.00
28606;BME280;46498;49.968;7.754;2023-08-30T20:51:22;-18670.00;;;12.31;100.00
28606;BME280;46498;49.968;7.754;2023-08-30T20:56:23;-18668.00;;;12.26;100.00
28606;BME280;46498;49.968;7.754;2023-08-30T21:01:24;-18669.00;;;12.28;100.00
28606;BME280;46498;49.968;7.754;2023-08-30T21:06:31;-18663.00;;;12.11;100.00
28606;BME280;46498;49.968;7.754;2023-08-30T21:11:32;-18662.00;;;12.05;100.00
28606;BME280;46498;49.968;7.754;2023-08-30T21:16:33;-18658.00;;;11.95;100.00
28606;BME280;46498;49.968;7.754;2023-08-30T21:21:35;-18656.00;;;11.88;100.00
28606;BME280;46498;49.968;7.754;2023-08-30T21:26:35;-18655.00;;;11.83;100.00
28606;BME280;46498;49.968;7.754;2023-08-30T21:31:36;-18655.00;;;11.84;100.00
28606;BME280;46498;49.968;7.754;2023-08-30T21:36:37;-18654.00;;;11.80;100.00
28606;BME280;46498;49.968;7.754;2023-08-30T21:41:38;-18651.00;;;11.71;100.00
28606;BME280;46498;49.968;7.754;2023-08-30T21:46:39;-18650.00;;;11.68;100.00
28606;BME280;46498;49.968;7.754;2023-08-30T21:51:40;-18652.00;;;11.73;100.00
28606;BME280;46498;49.968;7.754;2023-08-30T21:56:41;-18653.00;;;11.77;100.00
28606;BME280;46498;49.968;7.754;2023-08-30T22:01:42;-18652.00;;;11.76;100.00
28606;BME280;46498;49.968;7.754;2023-08-30T22:06:43;-18655.00;;;11.85;100.00
28606;BME280;46498;49.968;7.754;2023-08-30T22:11:44;-18656.00;;;11.88;100.00
28606;BME280;46498;49.968;7.754;2023-08-30T22:16:45;-18656.00;;;11.87;100.00
28606;BME280;46498;49.968;7.754;2023-08-30T22:21:47;-18655.00;;;11.83;100.00
28606;BME280;46498;49.968;7.754;2023-08-30T22:26:48;-18658.00;;;11.93;100.00
28606;BME280;46498;49.968;7.754;2023-08-30T22:31:49;-18661.00;;;12.02;100.00
28606;BME280;46498;49.968;7.754;2023-08-30T22:36:50;-18661.00;;;12.02;100.00
28606;BME280;46498;49.968;7.754;2023-08-30T22:41:51;-18653.00;;;11.77;100.00
28606;BME280;46498;49.968;7.754;2023-08-30T22:46:52;-18648.00;;;11.63;100.00
28606;BME280;46498;49.968;7.754;2023-08-30T22:51:53;-18645.00;;;11.53;100.00
28606;BME280;46498;49.968;7.754;2023-08-30T22:56:55;-18645.00;;;11.53;100.00
28606;BME280;46498;49.968;7.754;2023-08-30T23:01:56;-18643.00;;;11.47;100.00
28606;BME280;46498;49.968;7.754;2023-08-30T23:06:57;-18644.00;;;11.50;100.00
28606;BME280;46498;49.968;7.754;2023-08-30T23:11:58;-18641.00;;;11.42;100.00
28606;BME280;46498;49.968;7.754;2023-08-30T23:16:59;-18640.00;;;11.39;100.00
28606;BME280;46498;49.968;7.754;2023-08-30T23:22:00;-18638.00;;;11.31;100.00
28606;BME280;46498;49.968;7.754;2023-08-30T23:27:01;-18637.00;;;11.28;100.00
28606;BME280;46498;49.968;7.754;2023-08-30T23:32:02;-18635.00;;;11.23;100.00
28606;BME280;46498;49.968;7.754;2023-08-30T23:37:03;-18639.00;;;11.35;100.00
28606;BME280;46498;49.968;7.754;2023-08-30T23:42:04;-18642.00;;;11.44;100.00
28606;BME280;46498;49.968;7.754;2023-08-30T23:47:05;-18643.00;;;11.46;100.00
28606;BME280;46498;49.968;7.754;2023-08-30T23:52:06;-18643.00;;;11.47;100.00
28606;BME280;46498;49.968;7.754;2023-08-30T23:57:07;-18638.00;;;11.29;100.00
